Time;durP1;ratioP1;P1;durP2;ratioP2;P2;SDS_P1;SDS_P2;PMS_P1;PMS_P2;Temp;Humidity;BMP_temperature;BMP_pressure;BME280_temperature;BME280_humidity;BME280_pressure;Samples;Min_cycle;Max_cycle;Signal;HPM_P1;HPM_P2
2023/08/07 00:02:25;;;;;;;0.60;0.60;;;15.60;99.90;;;15.80;78.24;100383.16;5026640;28;20640;-66
2023/08/07 00:04:52;;;;;;;0.80;0.80;;;15.50;99.90;;;15.78;78.58;100379.03;5021461;28;20692;-66
2023/08/07 00:07:19;;;;;;;0.60;0.60;;;15.50;99.90;;;15.76;78.60;100375.75;5018360;28;20660;-66
2023/08/07 00:09:46;;;;;;;0.60;0.60;;;15.50;99.90;;;15.76;78.42;100375.75;5026390;28;20640;-68
2023/08/07 00:12:13;;;;;;;0.70;0.70;;;15.50;99.90;;;15.76;78.10;100378.38;5022021;28;20695;-65
2023/08/07 00:14:39;;;;;;;1.40;0.50;;;15.50;99.90;;;15.79;77.88;100383.31;5021428;28;20676;-66
2023/08/07 00:17:08;;;;;;;0.93;0.83;;;15.50;99.90;;;15.76;77.66;100375.75;5021220;28;20795;-66
2023/08/07 00:19:35;;;;;;;0.80;0.80;;;15.50;99.90;;;15.77;78.41;100383.47;5028896;28;20696;-66
2023/08/07 00:22:02;;;;;;;1.07;0.80;;;15.50;99.90;;;15.74;77.99;100377.69;5019146;28;20628;-66
2023/08/07 00:24:28;;;;;;;1.27;1.20;;;15.50;99.90;;;15.73;77.95;100378.66;5022822;28;20635;-66
2023/08/07 00:26:55;;;;;;;0.63;0.63;;;15.50;99.90;;;15.76;77.08;100386.25;5021641;28;20630;-66
2023/08/07 00:29:23;;;;;;;1.70;1.00;;;15.50;99.90;;;15.76;76.91;100375.75;5021760;28;20644;-66
2023/08/07 00:31:50;;;;;;;1.00;0.67;;;15.50;99.90;;;15.74;77.02;100377.69;5025339;28;20732;-66
2023/08/07 00:34:17;;;;;;;0.83;0.83;;;15.50;99.90;;;15.71;77.23;100375.34;5028165;28;21241;-66
2023/08/07 00:36:43;;;;;;;0.80;0.80;;;15.50;99.90;;;15.70;77.00;100378.94;5022469;28;20732;-66
2023/08/07 00:39:10;;;;;;;0.83;0.83;;;15.50;99.90;;;15.68;77.14;100379.09;5024741;28;20707;-66
2023/08/07 00:41:37;;;;;;;2.20;1.00;;;15.50;99.90;;;15.67;77.02;100381.88;5026607;28;20641;-67
2023/08/07 00:44:06;;;;;;;2.37;1.00;;;15.40;99.90;;;15.66;76.65;100380.22;5031253;28;20719;-66
2023/08/07 00:46:33;;;;;;;0.60;0.60;;;15.40;99.90;;;15.65;76.48;100386.47;5029987;28;20636;-66
2023/08/07 00:49:00;;;;;;;0.60;0.60;;;15.40;99.90;;;15.64;76.66;100383.00;5032678;28;21316;-67
2023/08/07 00:51:27;;;;;;;0.63;0.60;;;15.40;99.90;;;15.62;76.80;100386.75;5024996;28;20644;-67
2023/08/07 00:53:54;;;;;;;0.60;0.60;;;15.40;99.90;;;15.63;76.33;100375.28;5039695;28;20712;-67
2023/08/07 00:56:23;;;;;;;1.07;0.80;;;15.40;99.90;;;15.63;76.08;100391.03;5031971;28;20631;-66
2023/08/07 00:58:50;;;;;;;0.90;0.60;;;15.30;99.90;;;15.64;76.22;100387.41;5012142;28;20673;-66
2023/08/07 01:01:17;;;;;;;1.10;0.53;;;15.40;99.90;;;15.66;76.14;100396.00;5020587;28;20639;-66
2023/08/07 01:03:44;;;;;;;1.27;0.70;;;15.40;99.90;;;15.66;76.27;100385.47;5023071;28;20637;-67
2023/08/07 01:06:11;;;;;;;1.33;0.67;;;15.40;99.90;;;15.63;75.88;100391.03;5030584;28;20624;-66
2023/08/07 01:08:38;;;;;;;1.50;0.70;;;15.40;99.90;;;15.59;75.73;100382.59;5029294;28;20683;-66
2023/08/07 01:11:12;;;;;;;0.97;0.57;;;15.30;99.90;;;15.60;76.42;100393.97;5042008;28;20715;-66
2023/08/07 01:13:57;;;;;;;1.23;0.70;;;15.40;99.90;;;15.55;75.66;100383.88;5030701;28;20627;-63
2023/08/07 01:16:52;;;;;;;1.00;0.60;;;15.30;99.90;;;15.56;76.03;100389.97;5030566;28;20639;-67
2023/08/07 01:19:27;;;;;;;1.53;0.63;;;15.30;99.90;;;15.52;75.45;100392.88;5026604;28;20664;-66
2023/08/07 01:22:09;;;;;;;0.60;0.60;;;15.30;99.90;;;15.52;75.29;100389.44;5022344;28;20731;-65
2023/08/07 01:24:38;;;;;;;0.60;0.60;;;15.30;99.90;;;15.47;75.63;100387.25;5021452;28;20629;-68
2023/08/07 01:27:17;;;;;;;1.47;0.70;;;15.20;99.90;;;15.45;75.64;100389.22;5023507;28;20636;-66
2023/08/07 01:30:08;;;;;;;0.50;0.50;;;15.20;99.90;;;15.46;75.55;100393.47;5021708;28;20727;-66
2023/08/07 01:33:05;;;;;;;1.20;0.80;;;15.20;99.90;;;15.46;75.26;100384.78;5030331;28;20627;-66
2023/08/07 01:35:46;;;;;;;0.53;0.50;;;15.20;99.90;;;15.42;75.55;100384.19;5027239;28;20778;-66
2023/08/07 01:38:14;;;;;;;0.60;0.60;;;15.20;99.90;;;15.40;75.15;100388.78;5026393;28;20751;-66
2023/08/07 01:40:42;;;;;;;0.53;0.53;;;15.20;99.90;;;15.40;75.56;100393.19;5023809;28;20731;-66
2023/08/07 01:43:09;;;;;;;0.80;0.80;;;15.20;99.90;;;15.38;75.15;100401.25;5046526;28;20682;-65
2023/08/07 01:45:37;;;;;;;3.53;1.07;;;15.20;99.90;;;15.39;75.08;100402.09;5017055;28;21018;-67
2023/08/07 01:48:04;;;;;;;0.50;0.50;;;15.20;99.90;;;15.41;75.17;100400.13;5014508;28;20644;-65
2023/08/07 01:50:31;;;;;;;0.80;0.80;;;15.20;99.90;;;15.43;74.57;100406.94;5028836;28;20648;-66
2023/08/07 01:52:58;;;;;;;0.70;0.70;;;15.20;99.90;;;15.43;74.71;100406.09;5027472;28;20763;-66
2023/08/07 01:55:25;;;;;;;1.13;0.47;;;15.20;99.90;;;15.44;74.53;100407.75;5029836;28;21276;-66
2023/08/07 01:57:52;;;;;;;0.63;0.63;;;15.20;99.90;;;15.44;73.93;100411.19;5021441;28;21242;-66
2023/08/07 02:00:20;;;;;;;0.60;0.47;;;15.20;99.90;;;15.43;74.06;100401.69;5019971;28;21047;-67
2023/08/07 02:02:47;;;;;;;1.03;0.93;;;15.20;99.90;;;15.42;74.53;100407.88;5026650;28;20663;-66
2023/08/07 02:05:15;;;;;;;1.53;0.70;;;15.20;99.90;;;15.39;74.04;100412.59;5024676;28;20755;-66
2023/08/07 02:07:42;;;;;;;0.73;0.73;;;15.10;99.90;;;15.36;74.43;100403.19;5018709;28;21292;-66
2023/08/07 02:10:09;;;;;;;0.90;0.90;;;15.10;99.90;;;15.35;74.73;100406.78;5026310;28;20654;-66
2023/08/07 02:12:36;;;;;;;2.10;0.80;;;15.10;99.90;;;15.29;74.68;100410.00;5029002;28;20682;-66
2023/08/07 02:15:04;;;;;;;0.73;0.67;;;15.10;99.90;;;15.31;74.26;100409.88;5014167;28;20645;-66
2023/08/07 02:17:31;;;;;;;1.10;1.00;;;15.10;99.90;;;15.32;74.16;100407.09;5018930;28;20695;-66
2023/08/07 02:19:58;;;;;;;1.70;0.83;;;15.10;99.90;;;15.30;74.76;100413.47;5028791;28;21268;-67
2023/08/07 02:22:25;;;;;;;0.57;0.57;;;15.10;99.90;;;15.30;74.48;100424.81;5031508;28;20620;-66
2023/08/07 02:24:52;;;;;;;0.60;0.60;;;15.00;99.90;;;15.30;74.82;100430.06;5031326;28;20714;-66
2023/08/07 02:27:19;;;;;;;1.10;0.83;;;15.00;99.90;;;15.31;75.02;100425.66;5030414;28;20647;-66
2023/08/07 02:29:46;;;;;;;0.77;0.77;;;15.10;99.90;;;15.33;74.51;100421.88;5015533;28;20740;-66
2023/08/07 02:32:13;;;;;;;1.67;1.00;;;15.10;99.90;;;15.32;74.91;100424.66;5021490;28;21207;-67
2023/08/07 02:34:40;;;;;;;0.70;0.70;;;15.10;99.90;;;15.35;74.09;100424.38;5030036;28;20692;-66
2023/08/07 02:37:06;;;;;;;0.70;0.70;;;15.10;99.90;;;15.37;75.02;100425.06;5031060;28;20652;-66
2023/08/07 02:39:33;;;;;;;0.70;0.70;;;15.20;99.90;;;15.34;74.72;100420.91;5021348;28;20696;-66
2023/08/07 02:42:00;;;;;;;0.50;0.50;;;15.20;99.90;;;15.34;74.76;100417.44;5024418;28;20691;-66
2023/08/07 02:44:27;;;;;;;1.57;0.73;;;15.10;99.90;;;15.32;74.33;100422.88;5026878;28;20728;-67
2023/08/07 02:46:54;;;;;;;0.77;0.67;;;15.10;99.90;;;15.30;75.01;100418.72;5017225;28;21069;-66
2023/08/07 02:49:21;;;;;;;0.70;0.70;;;15.10;99.90;;;15.29;74.82;100425.78;5028519;28;20654;-67
2023/08/07 02:51:48;;;;;;;0.80;0.80;;;15.10;99.90;;;15.27;75.33;100425.09;5030164;28;20727;-66
2023/08/07 02:54:15;;;;;;;0.83;0.83;;;15.00;99.90;;;15.23;74.98;100417.63;5012953;28;20664;-66
2023/08/07 02:56:42;;;;;;;1.10;0.90;;;15.00;99.90;;;15.25;75.18;100413.06;5024788;28;20709;-64
2023/08/07 02:59:09;;;;;;;0.83;0.83;;;15.00;99.90;;;15.25;75.35;100418.31;5012689;28;20652;-66
2023/08/07 03:01:36;;;;;;;0.57;0.57;;;15.00;99.90;;;15.23;75.12;100415.00;5026773;28;20648;-66
2023/08/07 03:04:03;;;;;;;0.57;0.57;;;15.00;99.90;;;15.21;75.12;100422.22;5030165;28;20624;-66
2023/08/07 03:06:30;;;;;;;2.10;0.80;;;15.00;99.90;;;15.22;75.52;100414.19;5029137;28;20636;-66
2023/08/07 03:08:58;;;;;;;0.40;0.40;;;15.00;99.90;;;15.24;75.99;100417.50;5028504;28;20663;-65
2023/08/07 03:11:25;;;;;;;0.90;0.90;;;15.00;99.90;;;15.24;75.69;100416.69;5018889;28;20747;-66
2023/08/07 03:13:52;;;;;;;2.63;0.60;;;15.00;99.90;;;15.21;75.90;100412.53;5029519;28;20625;-66
2023/08/07 03:16:18;;;;;;;1.70;0.60;;;15.00;99.90;;;15.19;75.36;100409.22;5029663;28;21098;-67
2023/08/07 03:18:46;;;;;;;0.57;0.57;;;15.00;99.90;;;15.18;75.77;100414.63;5020012;28;20669;-66
2023/08/07 03:21:13;;;;;;;3.47;0.80;;;15.00;99.90;;;15.19;76.10;100413.66;5012136;28;21478;-66
2023/08/07 03:23:40;;;;;;;0.90;0.90;;;14.90;99.90;;;15.20;75.75;100424.03;5020717;28;20648;-67
2023/08/07 03:26:10;;;;;;;0.53;0.53;;;15.00;99.90;;;15.20;76.26;100420.56;5024714;28;21260;-66
2023/08/07 03:28:46;;;;;;;0.50;0.50;;;15.00;99.90;;;15.17;76.39;100428.72;5023712;28;20663;-67
2023/08/07 03:31:14;;;;;;;0.60;0.60;;;15.00;99.90;;;15.14;76.20;100426.41;5025087;28;20703;-66
2023/08/07 03:33:41;;;;;;;0.63;0.63;;;14.90;99.90;;;15.12;76.80;100421.28;5018543;28;20661;-66
2023/08/07 03:36:09;;;;;;;0.80;0.70;;;14.90;99.90;;;15.09;77.78;100423.38;5018687;28;20644;-66
2023/08/07 03:38:36;;;;;;;1.07;1.07;;;14.90;99.90;;;15.05;78.47;100425.47;5027233;28;20679;-66
2023/08/07 03:41:04;;;;;;;1.70;1.13;;;14.80;99.90;;;15.02;78.60;100417.88;5018500;28;20742;-66
2023/08/07 03:43:31;;;;;;;1.03;0.70;;;14.80;99.90;;;14.99;79.25;100418.13;5018787;28;20637;-66
2023/08/07 03:45:58;;;;;;;0.87;0.80;;;14.70;99.90;;;15.04;78.32;100420.34;5024094;28;21010;-66
2023/08/07 03:48:28;;;;;;;0.80;0.70;;;14.80;99.90;;;15.01;78.08;100413.59;5022249;28;20660;-66
2023/08/07 03:51:08;;;;;;;1.73;0.53;;;14.80;99.90;;;15.00;77.72;100419.81;5020596;28;20638;-65
2023/08/07 03:53:35;;;;;;;1.17;1.07;;;14.70;99.90;;;14.98;77.71;100420.91;5023656;28;20662;-65
2023/08/07 03:56:02;;;;;;;0.93;0.80;;;14.80;99.90;;;14.99;77.98;100425.22;5020487;28;21015;-65
2023/08/07 03:58:29;;;;;;;0.90;0.90;;;14.80;99.90;;;14.98;77.92;100434.06;5027000;28;20664;-66
2023/08/07 04:00:56;;;;;;;0.60;0.60;;;14.70;99.90;;;15.02;77.80;100425.75;5029073;28;20672;-66
2023/08/07 04:03:23;;;;;;;0.60;0.60;;;14.80;99.90;;;15.02;77.23;100436.25;5027550;28;20636;-66
2023/08/07 04:05:55;;;;;;;0.40;0.40;;;14.80;99.90;;;15.05;77.21;100438.59;5029419;28;20620;-66
2023/08/07 04:08:23;;;;;;;1.57;0.97;;;14.80;99.90;;;15.04;77.18;100431.69;5031670;28;21001;-66
2023/08/07 04:11:03;;;;;;;1.93;0.97;;;14.80;99.90;;;15.05;76.88;100432.53;5024592;28;20632;-67
2023/08/07 04:13:31;;;;;;;0.90;0.90;;;14.80;99.90;;;15.02;76.98;100444.13;5047587;28;20638;-65
2023/08/07 04:16:00;;;;;;;0.87;0.87;;;14.80;99.90;;;15.05;76.46;100449.13;5030554;28;20647;-66
2023/08/07 04:18:27;;;;;;;0.60;0.60;;;14.80;99.90;;;15.06;75.68;100449.94;5030899;28;20744;-66
2023/08/07 04:20:55;;;;;;;0.87;0.87;;;14.80;99.90;;;15.05;75.76;100450.91;5028735;28;20748;-65
2023/08/07 04:23:23;;;;;;;0.70;0.60;;;14.80;99.90;;;15.05;76.11;100454.38;5032970;28;20719;-66
2023/08/07 04:25:51;;;;;;;0.63;0.63;;;14.80;99.90;;;15.04;75.73;100452.69;5032445;28;20656;-67
2023/08/07 04:28:18;;;;;;;0.50;0.50;;;14.80;99.90;;;15.03;75.53;100450.22;5026174;28;20656;-66
2023/08/07 04:30:49;;;;;;;0.70;0.70;;;14.80;99.90;;;14.99;75.86;100456.75;5030113;28;21041;-66
2023/08/07 04:33:16;;;;;;;0.80;0.80;;;14.80;99.90;;;15.01;75.89;100453.00;5015901;28;21077;-66
2023/08/07 04:35:43;;;;;;;0.80;0.80;;;14.80;99.90;;;15.06;75.27;100463.06;5027701;28;20628;-66
2023/08/07 04:38:10;;;;;;;6.10;0.90;;;14.80;99.90;;;15.07;75.68;100457.69;5031849;28;20660;-66
2023/08/07 04:40:37;;;;;;;1.10;0.80;;;14.90;99.90;;;15.05;75.28;100467.50;5030986;28;20674;-66
2023/08/07 04:43:04;;;;;;;1.80;0.80;;;14.80;99.90;;;15.02;76.01;100464.31;5031799;28;20715;-66
2023/08/07 04:45:31;;;;;;;0.90;0.90;;;14.80;99.90;;;15.04;75.91;100470.25;5021796;28;20712;-67
2023/08/07 04:47:58;;;;;;;1.17;0.60;;;14.80;99.90;;;15.04;76.03;100473.72;5029253;28;20647;-66
2023/08/07 04:50:25;;;;;;;0.93;0.67;;;14.80;99.90;;;15.06;76.36;100471.78;5018066;28;21212;-66
2023/08/07 04:52:52;;;;;;;0.93;0.93;;;14.80;99.90;;;15.07;76.63;100467.38;5029443;28;21227;-66
2023/08/07 04:55:19;;;;;;;0.70;0.50;;;14.80;99.90;;;15.08;76.63;100469.00;5021541;28;20636;-65
2023/08/07 04:57:47;;;;;;;2.00;0.70;;;14.80;99.90;;;15.07;75.85;100470.81;5028181;28;20678;-66
2023/08/07 05:00:15;;;;;;;1.10;1.00;;;14.80;99.90;;;15.03;76.57;100473.88;5023750;28;20672;-64
2023/08/07 05:02:42;;;;;;;2.43;0.90;;;14.80;99.90;;;15.05;75.84;100474.56;5026200;28;20632;-65
2023/08/07 05:05:09;;;;;;;3.83;0.80;;;14.80;99.90;;;15.05;76.75;100477.19;5015928;28;20690;-63
2023/08/07 05:07:36;;;;;;;0.60;0.50;;;14.80;99.90;;;15.05;77.08;100469.31;5028513;28;20648;-65
2023/08/07 05:10:03;;;;;;;0.60;0.60;;;14.80;99.90;;;15.09;77.13;100474.13;5017990;28;20676;-63
2023/08/07 05:12:30;;;;;;;1.00;1.00;;;14.80;99.90;;;15.11;76.96;100480.06;5031388;28;20628;-66
2023/08/07 05:14:57;;;;;;;1.00;1.00;;;14.90;99.90;;;15.12;77.18;100479.09;5021472;28;20644;-66
2023/08/07 05:17:24;;;;;;;0.80;0.80;;;14.90;99.90;;;15.19;76.81;100476.72;5030402;28;20644;-65
2023/08/07 05:19:51;;;;;;;2.63;1.10;;;14.90;99.90;;;15.18;76.91;100480.34;5031335;28;20671;-66
2023/08/07 05:22:18;;;;;;;1.27;1.00;;;15.00;99.90;;;15.19;76.26;100484.59;5020823;28;21220;-65
2023/08/07 05:24:45;;;;;;;1.07;1.07;;;15.00;99.90;;;15.21;76.46;100480.88;5014606;28;20676;-66
2023/08/07 05:27:12;;;;;;;1.27;0.90;;;15.00;99.90;;;15.24;75.93;100488.47;5015051;28;20684;-66
2023/08/07 05:29:45;;;;;;;0.67;0.67;;;15.00;99.90;;;15.22;75.75;100485.16;5014185;28;20694;-66
2023/08/07 05:32:13;;;;;;;0.90;0.60;;;15.00;99.90;;;15.25;76.17;100490.13;5022181;28;20720;-66
2023/08/07 05:34:41;;;;;;;2.10;0.87;;;15.00;99.90;;;15.29;75.30;100496.75;5027646;28;20631;-66
2023/08/07 05:37:08;;;;;;;1.60;0.90;;;15.00;99.90;;;15.31;75.78;100491.38;5029824;28;20710;-65
2023/08/07 05:39:35;;;;;;;2.40;0.60;;;15.10;99.90;;;15.36;75.21;100487.31;5024563;28;20629;-66
2023/08/07 05:42:03;;;;;;;0.77;0.60;;;15.10;99.90;;;15.40;74.61;100501.84;5012237;28;20641;-67
2023/08/07 05:44:30;;;;;;;2.93;1.10;;;15.10;99.90;;;15.45;74.06;100509.31;5013970;28;20642;-64
2023/08/07 05:46:57;;;;;;;0.93;0.93;;;15.20;99.90;;;15.47;74.14;100512.63;5015158;28;20732;-66
2023/08/07 05:49:24;;;;;;;1.37;1.10;;;15.20;99.90;;;15.48;74.01;100515.09;5017023;28;20669;-66
2023/08/07 05:51:53;;;;;;;2.50;0.67;;;15.20;99.90;;;15.49;74.13;100522.03;5018577;28;20633;-66
2023/08/07 05:54:21;;;;;;;0.80;0.80;;;15.20;99.90;;;15.51;73.57;100517.47;5015463;28;20676;-66
2023/08/07 05:56:48;;;;;;;0.73;0.73;;;15.20;99.90;;;15.52;73.82;100515.66;5012676;28;20688;-66
2023/08/07 05:59:16;;;;;;;0.90;0.90;;;15.30;99.90;;;15.53;73.43;100510.25;5016661;28;20651;-66
2023/08/07 06:01:43;;;;;;;0.60;0.60;;;15.30;99.90;;;15.60;73.42;100525.44;5013098;28;20696;-66
2023/08/07 06:04:10;;;;;;;0.60;0.60;;;15.30;99.90;;;15.64;73.27;100526.81;5031384;28;20641;-66
2023/08/07 06:06:39;;;;;;;0.60;0.60;;;15.40;99.90;;;15.65;72.94;100528.50;5017422;28;20632;-66
2023/08/07 06:09:06;;;;;;;0.70;0.70;;;15.40;99.90;;;15.68;73.21;100528.19;5014152;28;20660;-67
2023/08/07 06:11:34;;;;;;;0.90;0.90;;;15.40;99.90;;;15.71;73.11;100533.16;5017536;28;20633;-66
2023/08/07 06:14:01;;;;;;;1.00;1.00;;;15.40;99.90;;;15.73;72.73;100536.47;5014532;28;20641;-66
2023/08/07 06:16:28;;;;;;;0.60;0.60;;;15.50;99.90;;;15.75;72.27;100535.34;5020863;28;21205;-66
2023/08/07 06:18:55;;;;;;;5.60;0.93;;;15.50;99.90;;;15.77;72.49;100535.22;5025696;28;20660;-66
2023/08/07 06:21:22;;;;;;;0.83;0.83;;;15.50;99.90;;;15.75;72.38;100534.53;5024620;28;20657;-67
2023/08/07 06:23:49;;;;;;;0.63;0.63;;;15.50;99.90;;;15.77;72.04;100535.22;5027727;28;20727;-67
2023/08/07 06:26:16;;;;;;;0.83;0.83;;;15.50;99.90;;;15.76;71.85;100541.47;5028920;28;20713;-67
2023/08/07 06:28:43;;;;;;;4.80;1.07;;;15.50;99.90;;;15.75;71.62;100545.03;5027778;28;20652;-68
2023/08/07 06:31:11;;;;;;;1.07;0.97;;;15.50;99.90;;;15.71;72.21;100546.31;5025365;28;20742;-67
2023/08/07 06:33:39;;;;;;;1.17;0.97;;;15.50;99.90;;;15.68;72.29;100555.31;5026856;28;21014;-67
2023/08/07 06:36:08;;;;;;;0.70;0.70;;;15.40;99.90;;;15.71;72.44;100543.69;5022689;28;20632;-67
2023/08/07 06:38:35;;;;;;;1.50;1.40;;;15.50;99.90;;;15.75;71.96;100552.94;5015320;28;20751;-67
2023/08/07 06:41:02;;;;;;;0.70;0.70;;;15.50;99.90;;;15.74;71.97;100560.00;5022780;28;20752;-67
2023/08/07 06:43:29;;;;;;;0.80;0.80;;;15.50;99.90;;;15.74;71.88;100559.19;5019341;28;21114;-66
2023/08/07 06:45:57;;;;;;;0.60;0.60;;;15.50;99.90;;;15.70;72.07;100561.25;5020255;28;20637;-66
2023/08/07 06:48:24;;;;;;;0.67;0.40;;;15.50;99.90;;;15.69;71.86;100569.31;5042788;28;20655;-66
2023/08/07 06:50:51;;;;;;;0.70;0.70;;;15.50;99.90;;;15.67;72.36;100571.25;5020227;28;21387;-66
2023/08/07 06:53:19;;;;;;;1.47;0.90;;;15.40;99.90;;;15.66;71.91;100578.31;5015938;28;20719;-65
2023/08/07 06:55:46;;;;;;;1.30;0.90;;;15.40;99.90;;;15.67;72.24;100579.13;5017094;28;20644;-68
2023/08/07 06:58:13;;;;;;;2.93;0.90;;;15.40;99.90;;;15.68;72.22;100583.41;5021379;28;20679;-66
2023/08/07 07:00:40;;;;;;;0.87;0.80;;;15.40;99.90;;;15.69;72.42;100583.28;5018536;28;20680;-65
2023/08/07 07:03:09;;;;;;;0.70;0.60;;;15.40;99.90;;;15.75;72.20;100584.50;5021149;28;20628;-66
2023/08/07 07:05:37;;;;;;;1.00;0.60;;;15.50;99.90;;;15.77;72.09;100588.66;5013863;28;20636;-66
2023/08/07 07:08:04;;;;;;;0.77;0.77;;;15.50;99.90;;;15.79;71.89;100578.81;5018636;28;20644;-66
2023/08/07 07:10:32;;;;;;;0.90;0.70;;;15.50;99.90;;;15.79;71.14;100585.88;5016008;28;21106;-64
2023/08/07 07:12:59;;;;;;;0.83;0.83;;;15.50;99.90;;;15.78;71.44;100582.41;5022166;28;20636;-66
2023/08/07 07:15:26;;;;;;;0.70;0.60;;;15.50;99.90;;;15.77;71.74;100583.41;5021073;28;20672;-66
2023/08/07 07:17:53;;;;;;;0.50;0.50;;;15.50;99.90;;;15.77;71.53;100577.28;5017637;28;21234;-66
2023/08/07 07:20:20;;;;;;;1.03;0.50;;;15.50;99.90;;;15.75;72.25;100573.97;5025686;28;20644;-65
2023/08/07 07:22:47;;;;;;;0.97;0.80;;;15.50;99.90;;;15.76;71.94;100588.81;5023762;28;20652;-64
2023/08/07 07:25:14;;;;;;;1.17;0.70;;;15.50;99.90;;;15.78;71.70;100589.50;5028964;28;21201;-66
2023/08/07 07:27:41;;;;;;;1.20;1.20;;;15.50;99.90;;;15.78;72.02;100586.88;5028853;28;20648;-66
2023/08/07 07:30:09;;;;;;;0.30;0.30;;;15.60;99.90;;;15.79;72.76;100593.75;5024586;28;20645;-66
2023/08/07 07:32:36;;;;;;;0.77;0.60;;;15.60;99.90;;;15.74;72.83;100594.19;5027344;28;20637;-66
2023/08/07 07:35:04;;;;;;;0.90;0.90;;;15.50;99.90;;;15.75;72.92;100600.28;5022198;28;20695;-65
2023/08/07 07:37:31;;;;;;;0.80;0.80;;;15.50;99.90;;;15.72;72.56;100604.03;5022774;28;20660;-66
2023/08/07 07:39:58;;;;;;;1.93;0.97;;;15.50;99.90;;;15.77;72.91;100608.88;5016441;28;20649;-66
2023/08/07 07:42:25;;;;;;;1.07;0.60;;;15.50;99.90;;;15.81;73.09;100604.97;5030726;28;20664;-66
2023/08/07 07:44:52;;;;;;;1.07;0.67;;;15.50;99.90;;;15.88;72.23;100611.31;5021528;28;21224;-66
2023/08/07 07:47:20;;;;;;;1.03;0.77;;;15.60;99.90;;;15.86;71.94;100616.75;5026095;28;20660;-66
2023/08/07 07:49:47;;;;;;;0.97;0.80;;;15.60;99.90;;;15.89;72.28;100623.50;5025528;28;20719;-67
2023/08/07 07:52:15;;;;;;;0.60;0.60;;;15.60;99.90;;;15.91;71.92;100622.38;5028360;28;20655;-69
2023/08/07 07:54:42;;;;;;;0.33;0.33;;;15.70;99.90;;;15.96;72.22;100629.84;5032214;28;20643;-66
2023/08/07 07:57:09;;;;;;;0.70;0.70;;;15.70;99.90;;;15.98;72.23;100628.72;5020246;28;20747;-67
2023/08/07 07:59:36;;;;;;;1.27;0.80;;;15.70;99.90;;;16.03;71.02;100625.66;5027802;28;20760;-66
2023/08/07 08:02:04;;;;;;;0.67;0.67;;;15.80;99.90;;;16.06;70.90;100626.19;5047015;28;20664;-66
2023/08/07 08:04:31;;;;;;;0.80;0.80;;;15.80;99.90;;;16.10;71.43;100626.72;5026963;28;20636;-65
2023/08/07 08:06:59;;;;;;;1.87;0.60;;;15.80;99.90;;;16.09;70.96;100631.19;5030475;28;20620;-66
2023/08/07 08:09:26;;;;;;;0.73;0.73;;;15.80;99.90;;;16.13;70.71;100629.06;5018644;28;20637;-66
2023/08/07 08:11:53;;;;;;;0.77;0.77;;;15.90;99.90;;;16.09;70.52;100631.19;5024943;28;20691;-67
2023/08/07 08:14:20;;;;;;;1.07;1.03;;;15.80;99.90;;;16.12;71.11;100630.06;5032391;28;21433;-65
2023/08/07 08:16:47;;;;;;;0.77;0.60;;;15.80;99.90;;;16.15;71.17;100637.66;5032651;28;20727;-66
2023/08/07 08:19:16;;;;;;;1.00;0.63;;;15.80;99.90;;;16.21;71.19;100629.16;5026416;28;20690;-66
2023/08/07 08:21:43;;;;;;;1.27;0.70;;;15.90;99.90;;;16.29;70.69;100639.81;5029556;28;20738;-64
2023/08/07 08:24:10;;;;;;;0.70;0.70;;;16.00;99.90;;;16.34;69.65;100645.47;5030244;28;21025;-66
2023/08/07 08:26:37;;;;;;;3.70;1.30;;;16.10;99.90;;;16.37;70.12;100653.06;5024994;28;20635;-66
2023/08/07 08:29:07;;;;;;;0.80;0.77;;;16.10;99.90;;;16.41;70.39;100651.81;5009981;28;20652;-67
2023/08/07 08:31:35;;;;;;;0.80;0.80;;;16.10;99.90;;;16.41;70.75;100653.59;5028761;28;20647;-66
2023/08/07 08:34:03;;;;;;;1.17;1.00;;;16.20;99.90;;;16.43;71.38;100665.66;5039801;28;20640;-67
2023/08/07 08:36:30;;;;;;;1.10;1.03;;;16.20;99.90;;;16.48;72.22;100662.59;5044896;28;20636;-65
2023/08/07 08:38:57;;;;;;;0.80;0.80;;;16.20;99.90;;;16.48;71.88;100663.41;5037825;28;20657;-65
2023/08/07 08:41:25;;;;;;;0.60;0.60;;;16.20;99.90;;;16.50;71.85;100666.75;5021405;28;20816;-65
2023/08/07 08:43:54;;;;;;;0.80;0.80;;;16.30;99.90;;;16.51;71.23;100657.03;5024806;28;21019;-70
2023/08/07 08:46:23;;;;;;;13.60;6.90;;;16.20;99.90;;;16.49;71.19;100659.78;5035330;28;21391;-66
2023/08/07 08:48:56;;;;;;;7.07;4.43;;;16.20;99.90;;;16.55;72.21;100669.75;5036093;28;20691;-65
2023/08/07 08:51:25;;;;;;;4.23;2.50;;;16.30;99.90;;;16.59;71.89;100676.41;5022043;28;20661;-67
2023/08/07 08:53:53;;;;;;;0.80;0.80;;;16.30;99.90;;;16.62;72.40;100676.09;5022183;28;20669;-67
2023/08/07 08:56:22;;;;;;;0.80;0.80;;;16.40;99.90;;;16.70;70.41;100675.34;5027559;28;20686;-67
2023/08/07 08:58:51;;;;;;;0.70;0.60;;;16.40;99.90;;;16.72;69.80;100676.03;5018908;28;20725;-67
2023/08/07 09:01:19;;;;;;;2.50;1.07;;;16.50;99.90;;;16.78;69.78;100675.47;5032052;28;21632;-66
2023/08/07 09:03:46;;;;;;;1.83;0.63;;;16.50;99.90;;;16.85;69.66;100676.50;5030860;28;21157;-67
2023/08/07 09:06:14;;;;;;;1.23;0.97;;;16.60;99.90;;;16.90;69.50;100679.53;5024199;28;20678;-68
2023/08/07 09:08:43;;;;;;;0.77;0.77;;;16.60;99.90;;;16.90;70.72;100671.63;5032482;28;20647;-67
2023/08/07 09:11:14;;;;;;;1.10;1.00;;;16.60;99.90;;;16.94;69.87;100673.81;5025099;28;20653;-67
2023/08/07 09:13:45;;;;;;;0.60;0.60;;;16.70;99.90;;;16.94;69.40;100680.88;5026604;28;20628;-67
2023/08/07 09:16:12;;;;;;;0.90;0.90;;;16.70;99.90;;;16.92;69.91;100688.97;5022802;28;20690;-68
2023/08/07 09:18:40;;;;;;;1.90;0.80;;;16.60;99.90;;;16.88;70.45;100684.97;5025648;28;20747;-66
2023/08/07 09:21:07;;;;;;;0.70;0.70;;;16.60;99.90;;;16.81;69.42;100691.81;5021248;28;20678;-67
2023/08/07 09:23:34;;;;;;;1.80;0.80;;;16.60;99.90;;;16.78;71.26;100693.91;5032464;28;20718;-69
2023/08/07 09:26:03;;;;;;;2.97;1.03;;;16.60;99.90;;;16.73;71.65;100686.44;5025005;28;20735;-67
2023/08/07 09:28:32;;;;;;;0.80;0.80;;;16.50;99.90;;;16.69;72.56;100698.25;5030247;28;20644;-67
2023/08/07 09:31:01;;;;;;;1.20;0.70;;;16.40;99.90;;;16.66;72.93;100688.00;5019865;28;20640;-67
2023/08/07 09:33:30;;;;;;;0.73;0.73;;;16.40;99.90;;;16.63;73.88;100693.56;5020895;28;20637;-67
2023/08/07 09:35:59;;;;;;;0.70;0.70;;;16.40;99.90;;;16.63;74.52;100690.91;5027463;28;20640;-65
2023/08/07 09:38:32;;;;;;;1.23;1.00;;;16.40;99.90;;;16.65;73.83;100691.59;5020499;28;21034;-68
2023/08/07 09:41:02;;;;;;;1.10;1.03;;;16.40;99.90;;;16.69;74.33;100702.69;5037422;28;20643;-66
2023/08/07 09:43:34;;;;;;;0.60;0.57;;;16.40;99.90;;;16.70;74.09;100701.69;5029309;28;20641;-67
2023/08/07 09:46:08;;;;;;;0.90;0.70;;;16.40;99.90;;;16.70;73.40;100705.16;5018173;28;20719;-67
2023/08/07 09:48:43;;;;;;;1.57;1.00;;;16.40;99.90;;;16.72;73.84;100707.66;5030253;28;20739;-67
2023/08/07 09:51:11;;;;;;;1.07;0.83;;;16.50;99.90;;;16.73;73.84;100722.50;5020354;28;20651;-68
2023/08/07 09:53:38;;;;;;;11.13;0.70;;;16.40;99.90;;;16.76;74.41;100715.13;5028773;28;21002;-66
2023/08/07 09:56:06;;;;;;;0.60;0.60;;;16.50;99.90;;;16.81;73.52;100714.69;5024217;28;20643;-64
2023/08/07 09:58:33;;;;;;;0.70;0.60;;;16.50;99.90;;;16.84;72.67;100723.13;5025510;28;20703;-66
2023/08/07 10:01:04;;;;;;;0.97;0.97;;;16.60;99.90;;;16.79;71.81;100725.38;5021308;28;20646;-66
2023/08/07 10:03:31;;;;;;;0.83;0.83;;;16.60;99.90;;;16.83;72.58;100729.38;5024675;28;20731;-66
2023/08/07 10:05:59;;;;;;;0.53;0.53;;;16.60;99.90;;;16.86;71.75;100733.53;5037865;28;21217;-66
2023/08/07 10:08:27;;;;;;;0.80;0.80;;;16.60;99.90;;;16.84;71.91;100732.84;5026764;28;20649;-67
2023/08/07 10:10:54;;;;;;;0.90;0.90;;;16.60;99.90;;;16.87;72.41;100738.63;5021681;28;21097;-67
2023/08/07 10:13:23;;;;;;;0.60;0.60;;;16.60;99.90;;;16.88;71.68;100735.03;5024310;28;20682;-66
2023/08/07 10:16:06;;;;;;;0.73;0.73;;;16.60;99.90;;;16.87;72.37;100729.91;5018226;28;20632;-66
2023/08/07 10:18:34;;;;;;;0.57;0.57;;;16.60;99.90;;;16.85;72.52;100740.59;5028744;28;20647;-66